Time;durP1;ratioP1;P1;durP2;ratioP2;P2;SDS_P1;SDS_P2;PMS_P1;PMS_P2;Temp;Humidity;BMP_temperature;BMP_pressure;BME280_temperature;BME280_humidity;BME280_pressure;Samples;Min_cycle;Max_cycle;Signal;HPM_P1;HPM_P2
2022/06/17 00:01:26;;;;;;;10.95;4.85;;;;;;;18.05;53.02;101937.44;5092394;28;20401;-58
2022/06/17 00:03:53;;;;;;;11.23;5.20;;;;;;;18.02;53.87;101936.75;5092898;28;20044;-58
2022/06/17 00:06:22;;;;;;;15.55;5.43;;;;;;;17.99;54.76;101933.59;5093703;28;20082;-57
2022/06/17 00:08:52;;;;;;;14.15;5.60;;;;;;;17.94;54.62;101934.13;5093793;28;20040;-58
2022/06/17 00:11:24;;;;;;;11.63;5.40;;;;;;;17.87;54.76;101929.63;5093938;28;20040;-60
2022/06/17 00:13:51;;;;;;;13.35;4.95;;;;;;;17.88;54.06;101929.44;5093275;28;20039;-59
2022/06/17 00:16:21;;;;;;;13.02;4.97;;;;;;;17.92;53.27;101936.16;5093638;28;20048;-57
2022/06/17 00:18:48;;;;;;;15.30;5.18;;;;;;;17.82;53.26;101930.94;5093415;28;20079;-60
2022/06/17 00:21:34;;;;;;;11.65;4.70;;;;;;;17.78;54.48;101926.09;5093344;28;20062;-59
2022/06/17 00:24:06;;;;;;;15.48;5.80;;;;;;;17.77;54.83;101919.03;5093537;28;20039;-60
2022/06/17 00:26:33;;;;;;;10.95;5.15;;;;;;;17.78;54.36;101918.88;5093608;28;20044;-58
2022/06/17 00:28:59;;;;;;;15.48;5.40;;;;;;;17.64;53.43;101922.25;5099159;28;20047;-58
2022/06/17 00:31:26;;;;;;;11.00;5.30;;;;;;;17.60;53.65;101921.78;5112909;28;20505;-58
2022/06/17 00:33:53;;;;;;;15.63;5.60;;;;;;;17.59;54.54;101920.13;5113748;28;20040;-58
2022/06/17 00:36:19;;;;;;;17.05;5.95;;;;;;;17.59;54.00;101917.44;5113590;28;20050;-58
2022/06/17 00:38:46;;;;;;;12.05;5.65;;;;;;;17.60;53.80;101915.56;5112615;28;20093;-58
2022/06/17 00:44:43;;;;;;;13.93;5.47;;;;;;;17.59;54.80;101916.56;5111124;27;20395;-58
2022/06/17 00:47:32;;;;;;;12.18;5.43;;;;;;;17.52;54.96;101915.59;5111051;28;20109;-58
2022/06/17 00:50:13;;;;;;;13.73;5.15;;;;;;;17.49;54.72;101922.13;5110951;28;20115;-57
2022/06/17 00:52:48;;;;;;;11.48;5.63;;;;;;;17.48;54.52;101925.81;5111305;28;20093;-58
2022/06/17 00:55:32;;;;;;;12.80;5.30;;;;;;;17.48;54.04;101920.47;5111026;28;20040;-58
2022/06/17 00:58:04;;;;;;;13.30;5.50;;;;;;;17.53;54.89;101919.97;5111262;28;20504;-58
2022/06/17 01:00:32;;;;;;;9.95;5.03;;;;;;;17.49;55.09;101924.00;5110563;28;20157;-58
2022/06/17 01:03:06;;;;;;;12.43;5.55;;;;;;;17.52;54.93;101927.19;5110589;28;20481;-58
2022/06/17 01:05:40;;;;;;;11.77;5.35;;;;;;;17.45;54.71;101926.19;5110025;28;20044;-58
2022/06/17 01:09:56;;;;;;;18.45;5.68;;;;;;;17.44;54.67;101916.44;5111066;28;20086;-58
2022/06/17 01:11:07;;;;;;;14.10;5.55;;;;;;;17.40;55.08;101915.94;5110426;28;20044;-58
2022/06/17 01:13:35;;;;;;;14.70;5.43;;;;;;;17.35;55.56;101920.16;5110599;28;20047;-58
2022/06/17 01:16:04;;;;;;;15.05;5.32;;;;;;;17.35;55.19;101923.66;5110741;28;20561;-58
2022/06/17 01:18:37;;;;;;;14.32;5.28;;;;;;;17.38;55.44;101919.81;5110698;28;20052;-58
2022/06/17 01:21:18;;;;;;;12.13;5.65;;;;;;;17.38;55.70;101925.19;5110929;28;20058;-57
2022/06/17 01:23:45;;;;;;;12.70;5.65;;;;;;;17.27;54.99;101915.66;5110584;28;20068;-57
2022/06/17 01:26:12;;;;;;;12.82;5.65;;;;;;;17.23;55.41;101917.00;5110621;28;20096;-57
2022/06/17 01:28:39;;;;;;;13.00;5.65;;;;;;;17.26;55.82;101920.19;5110296;28;20039;-57
2022/06/17 01:31:07;;;;;;;13.02;5.53;;;;;;;17.29;56.10;101932.41;5110426;28;20056;-58
2022/06/17 01:33:38;;;;;;;13.13;5.82;;;;;;;17.30;55.78;101934.09;5109866;28;20054;-59
2022/06/17 01:36:15;;;;;;;13.70;5.30;;;;;;;17.26;55.25;101935.41;5110474;28;20138;-59
2022/06/17 01:38:46;;;;;;;13.88;5.22;;;;;;;17.27;56.26;101934.41;5110196;28;20097;-58
2022/06/17 01:41:14;;;;;;;11.85;5.30;;;;;;;17.23;56.54;101936.59;5110086;28;20047;-58
2022/06/17 01:44:00;;;;;;;11.40;5.60;;;;;;;17.20;55.98;101938.78;5109830;28;20051;-59
2022/06/17 01:46:42;;;;;;;13.40;5.68;;;;;;;17.22;55.24;101942.97;5110229;28;20093;-59
2022/06/17 01:49:14;;;;;;;19.05;5.32;;;;;;;17.21;55.83;101927.88;5110278;28;20055;-58
2022/06/17 01:51:43;;;;;;;;;;;;;;;17.19;56.77;101932.59;5110156;28;20101;-59
2022/06/17 01:54:16;;;;;;;11.70;5.88;;;;;;;17.06;57.06;101934.91;5103684;28;19963;-58
2022/06/17 01:56:45;;;;;;;13.27;5.70;;;;;;;17.00;56.98;101932.91;5096466;28;20527;-58
2022/06/17 01:59:20;;;;;;;13.60;5.07;;;;;;;16.88;57.95;101919.84;5096501;28;20055;-58
2022/06/17 02:01:50;;;;;;;11.35;5.90;;;;;;;16.89;58.01;101915.34;5096120;28;20386;-59
2022/06/17 02:04:23;;;;;;;16.65;5.90;;;;;;;16.85;58.52;101922.88;5095258;28;20040;-59
2022/06/17 02:06:58;;;;;;;13.52;5.70;;;;;;;16.86;58.36;101923.69;5096234;28;20062;-58
2022/06/17 02:09:25;;;;;;;17.65;5.65;;;;;;;16.83;58.63;101927.56;5096366;28;20126;-58
2022/06/17 02:11:54;;;;;;;12.38;5.93;;;;;;;16.88;58.88;101933.25;5095923;28;20122;-58
2022/06/17 02:14:22;;;;;;;12.55;5.65;;;;;;;16.84;58.99;101931.91;5095895;28;20066;-59
2022/06/17 02:17:09;;;;;;;14.05;5.93;;;;;;;16.83;59.15;101937.44;5095683;28;20493;-59
2022/06/17 02:19:46;;;;;;;13.63;6.90;;;;;;;16.75;58.36;101927.50;5095838;28;20459;-58
2022/06/17 02:25:00;;;;;;;12.15;5.53;;;;;;;16.61;59.85;101942.41;5131945;27;20176;-58
2022/06/17 02:27:30;;;;;;;16.08;5.90;;;;;;;16.65;59.85;101942.91;5110979;28;20405;-57
2022/06/17 02:29:58;;;;;;;13.45;6.13;;;;;;;16.58;60.33;101929.34;5110948;28;20558;-57
2022/06/17 02:32:25;;;;;;;10.85;5.63;;;;;;;16.60;60.32;101935.34;5111147;28;20397;-58
2022/06/17 02:34:59;;;;;;;15.60;5.90;;;;;;;16.45;60.67;101940.53;5110342;28;20043;-57
2022/06/17 02:37:29;;;;;;;16.67;5.88;;;;;;;16.55;61.18;101942.22;5111187;28;20087;-57
2022/06/17 02:40:02;;;;;;;18.70;6.18;;;;;;;16.49;61.49;101939.19;5111152;28;20052;-58
2022/06/17 02:42:37;;;;;;;12.27;5.90;;;;;;;16.50;61.77;101942.72;5093156;28;20043;-57
2022/06/17 02:45:13;;;;;;;13.43;5.75;;;;;;;16.39;61.93;101953.72;5111108;28;20072;-57
2022/06/17 02:47:41;;;;;;;15.68;5.68;;;;;;;16.33;62.19;101957.88;5110979;28;20098;-57
2022/06/17 02:50:17;;;;;;;11.93;5.68;;;;;;;16.32;62.43;101956.22;5110873;28;20126;-57
2022/06/17 02:52:45;;;;;;;15.85;6.15;;;;;;;16.26;62.58;101959.53;5110750;28;20062;-58
2022/06/17 02:55:26;;;;;;;15.80;6.18;;;;;;;16.28;62.67;101958.38;5110958;28;20056;-58
2022/06/17 02:58:01;;;;;;;15.73;5.95;;;;;;;16.33;62.23;101962.41;5092769;28;20043;-57
2022/06/17 03:00:28;;;;;;;11.88;6.10;;;;;;;16.30;62.84;101953.72;5110841;28;20150;-57
2022/06/17 03:03:00;;;;;;;15.35;6.28;;;;;;;16.32;63.36;101956.22;5092292;28;20040;-57
2022/06/17 03:05:30;;;;;;;15.40;6.65;;;;;;;16.31;64.09;101955.38;5110093;28;20507;-57
2022/06/17 03:07:59;;;;;;;13.60;6.35;;;;;;;16.30;63.62;101956.38;5110445;28;20036;-57
2022/06/17 03:10:35;;;;;;;12.18;6.38;;;;;;;16.23;64.49;101958.03;5110420;28;20126;-57
2022/06/17 03:13:12;;;;;;;15.05;6.25;;;;;;;16.21;64.19;101954.69;5110437;28;20101;-57
2022/06/17 03:15:42;;;;;;;11.25;6.00;;;;;;;16.17;63.76;101950.66;5110337;28;20548;-57
2022/06/17 03:18:10;;;;;;;16.58;6.25;;;;;;;16.14;63.30;101947.47;5092253;28;20048;-57
2022/06/17 03:20:38;;;;;;;14.00;6.45;;;;;;;16.02;63.92;101945.06;5110414;28;20044;-57
2022/06/17 03:23:11;;;;;;;14.95;5.50;;;;;;;16.07;63.62;101948.09;5104675;28;20052;-57
2022/06/17 03:25:47;;;;;;;13.43;6.20;;;;;;;16.09;62.92;101955.97;5089849;28;20051;-58
2022/06/17 03:28:25;;;;;;;18.45;6.63;;;;;;;16.19;63.12;101961.19;5089554;28;20406;-57
2022/06/17 03:31:00;;;;;;;15.90;6.10;;;;;;;16.16;62.67;101964.19;5068608;28;20446;-57
2022/06/17 03:33:38;;;;;;;13.20;6.05;;;;;;;16.25;62.65;101960.56;5069386;28;20482;-57
2022/06/17 03:36:30;;;;;;;13.30;6.20;;;;;;;16.24;61.73;101964.22;5057497;28;20095;-57
2022/06/17 03:39:00;;;;;;;15.53;6.13;;;;;;;16.26;61.82;101962.22;5055815;28;20053;-58
2022/06/17 03:41:46;;;;;;;13.77;5.82;;;;;;;16.21;61.99;101962.72;5056455;28;20060;-57
2022/06/17 03:44:17;;;;;;;15.00;6.00;;;;;;;16.20;61.55;101963.69;5055756;28;20032;-57
2022/06/17 03:46:54;;;;;;;12.63;5.82;;;;;;;16.23;61.32;101962.56;5055757;28;20040;-57
2022/06/17 03:49:35;;;;;;;14.63;5.68;;;;;;;16.27;60.65;101955.88;5055823;28;20041;-57
2022/06/17 03:52:11;;;;;;;13.35;6.05;;;;;;;16.35;60.74;101957.72;5055737;28;20384;-57
2022/06/17 03:54:39;;;;;;;15.30;5.78;;;;;;;16.42;60.37;101956.06;5055779;28;20048;-57
2022/06/17 03:57:10;;;;;;;13.52;5.93;;;;;;;16.42;60.45;101966.78;5055784;28;20069;-57
2022/06/17 03:59:41;;;;;;;12.87;6.00;;;;;;;16.42;60.80;101967.63;5055920;28;20460;-58
2022/06/17 04:02:13;;;;;;;15.95;6.15;;;;;;;16.44;60.85;101962.09;5055424;28;20294;-57
2022/06/17 04:04:44;;;;;;;14.63;5.68;;;;;;;16.47;60.83;101961.78;5054814;28;20495;-57
2022/06/17 04:07:12;;;;;;;16.27;6.00;;;;;;;16.40;61.00;101968.78;5055384;28;20044;-57
2022/06/17 04:09:43;;;;;;;15.40;6.63;;;;;;;16.41;60.83;101975.81;5055609;28;20128;-58
2022/06/17 04:15:08;;;;;;;15.32;5.85;;;;;;;16.52;60.34;101978.22;5111148;27;20478;-57
2022/06/17 04:17:44;;;;;;;14.82;6.20;;;;;;;16.47;60.69;101984.03;5111273;28;20086;-57
2022/06/17 04:20:41;;;;;;;18.25;6.65;;;;;;;16.49;60.64;101982.03;5111391;28;20511;-57
2022/06/17 04:23:15;;;;;;;19.20;6.80;;;;;;;16.50;61.21;101983.72;5110472;28;20047;-58
2022/06/17 04:26:16;;;;;;;15.95;6.45;;;;;;;16.42;61.46;101997.06;5110948;28;20123;-58
2022/06/17 04:29:02;;;;;;;;;;;;;;;16.45;61.26;101998.59;5111219;28;20434;-58
2022/06/17 04:31:32;;;;;;;15.20;6.20;;;;;;;16.45;61.26;101993.25;5110451;28;19924;-57
2022/06/17 04:34:07;;;;;;;14.10;5.88;;;;;;;16.46;60.94;101998.44;5110804;28;20524;-57
2022/06/17 04:36:55;;;;;;;15.10;5.60;;;;;;;16.49;60.70;101989.25;5111088;28;20097;-58
2022/06/17 04:39:30;;;;;;;17.58;6.28;;;;;;;16.53;60.68;101985.22;5110762;28;20055;-58
2022/06/17 04:42:16;;;;;;;14.57;6.32;;;;;;;16.55;60.52;101991.25;5110851;28;20485;-58
2022/06/17 04:44:43;;;;;;;14.73;6.50;;;;;;;16.57;60.61;101989.28;5110871;28;20044;-58
2022/06/17 04:47:13;;;;;;;15.40;6.30;;;;;;;16.63;60.56;101990.47;5110438;28;20128;-58
2022/06/17 04:49:55;;;;;;;13.32;6.07;;;;;;;16.66;60.91;101993.66;5110971;28;20083;-58
2022/06/17 04:52:34;;;;;;;21.05;6.90;;;;;;;16.72;60.19;101994.84;5110167;28;20040;-58
2022/06/17 04:55:29;;;;;;;12.88;6.70;;;;;;;16.76;60.74;101987.31;5110532;28;20028;-58
2022/06/17 04:58:00;;;;;;;15.80;6.50;;;;;;;16.82;60.13;101986.63;5110405;28;20051;-58
2022/06/17 05:00:28;;;;;;;17.45;6.13;;;;;;;16.81;59.86;101985.81;5110639;28;20130;-58
2022/06/17 05:02:58;;;;;;;14.80;6.93;;;;;;;16.89;60.19;101991.19;5110612;28;20036;-58
2022/06/17 05:05:39;;;;;;;16.42;7.10;;;;;;;16.94;60.42;101989.88;5109807;28;20145;-58
2022/06/17 05:08:20;;;;;;;15.73;6.90;;;;;;;16.88;59.82;101992.22;5110367;28;20050;-60
2022/06/17 05:10:56;;;;;;;15.18;6.45;;;;;;;16.89;60.20;101988.53;5110472;28;20048;-58
2022/06/17 05:13:37;;;;;;;15.05;7.05;;;;;;;17.00;60.67;101986.53;5109669;28;20059;-58
2022/06/17 05:16:05;;;;;;;15.00;6.78;;;;;;;17.05;59.64;101979.66;5109737;28;20133;-58
2022/06/17 05:18:33;;;;;;;16.10;6.32;;;;;;;17.07;60.01;101987.53;5109958;28;20044;-58
2022/06/17 05:21:17;;;;;;;13.02;5.80;;;;;;;17.07;58.92;101983.00;5110038;28;20040;-58
2022/06/17 05:23:45;;;;;;;13.05;6.05;;;;;;;17.03;59.41;101992.41;5109978;28;20473;-58
2022/06/17 05:26:12;;;;;;;12.80;5.78;;;;;;;17.11;59.32;101986.19;5095261;28;20048;-58
2022/06/17 05:28:39;;;;;;;12.75;5.85;;;;;;;17.20;59.39;101989.72;5096194;28;20501;-58
2022/06/17 05:31:13;;;;;;;14.00;6.32;;;;;;;17.14;59.11;101985.88;5096095;28;20048;-58
2022/06/17 05:33:47;;;;;;;14.23;5.30;;;;;;;17.23;59.01;101982.19;5095338;28;20032;-58
2022/06/17 05:36:14;;;;;;;15.00;5.65;;;;;;;17.28;58.16;101981.66;5096298;28;20123;-58
2022/06/17 05:38:41;;;;;;;12.13;5.75;;;;;;;17.30;58.23;101973.44;5095983;28;20040;-59
2022/06/17 05:41:15;;;;;;;13.10;5.85;;;;;;;17.43;57.38;101974.63;5096062;28;20119;-58
2022/06/17 05:43:42;;;;;;;13.63;5.40;;;;;;;17.41;57.81;101973.97;5096073;28;20134;-58
2022/06/17 05:46:17;;;;;;;12.80;5.85;;;;;;;17.54;57.39;101978.81;5096018;28;20090;-58
2022/06/17 05:49:04;;;;;;;18.42;6.30;;;;;;;17.72;57.16;101972.38;5095610;28;20040;-58
2022/06/17 05:51:39;;;;;;;19.50;5.80;;;;;;;17.69;57.18;101960.16;5095832;28;20127;-58
2022/06/17 05:54:16;;;;;;;17.38;6.32;;;;;;;17.84;56.96;101971.88;5088150;28;20089;-58
2022/06/17 05:56:49;;;;;;;15.73;6.50;;;;;;;17.92;57.14;101964.81;5095879;28;20052;-59
2022/06/17 05:59:17;;;;;;;18.83;7.45;;;;;;;17.92;56.45;101972.88;5095796;28;20094;-58
2022/06/17 06:01:44;;;;;;;17.65;6.93;;;;;;;18.03;57.07;101975.19;5095576;28;20497;-59
2022/06/17 06:04:19;;;;;;;18.65;7.88;;;;;;;18.14;57.28;101976.66;5086811;28;20040;-59
2022/06/17 06:06:46;;;;;;;18.17;7.72;;;;;;;18.11;57.03;101972.47;5083451;28;20044;-58
2022/06/17 06:09:13;;;;;;;17.55;7.70;;;;;;;17.98;57.37;101972.19;5074792;28;20044;-59
2022/06/17 06:11:40;;;;;;;20.77;8.55;;;;;;;18.02;57.24;101968.16;5074109;28;20098;-58
2022/06/17 06:14:08;;;;;;;16.10;7.43;;;;;;;17.95;57.48;101972.53;5073720;28;20095;-59
2022/06/17 06:16:38;;;;;;;19.05;7.47;;;;;;;18.00;57.14;101967.47;5056957;28;20548;-58
2022/06/17 06:19:06;;;;;;;23.45;7.70;;;;;;;17.93;58.30;101974.56;5075157;28;20136;-58
2022/06/17 06:21:32;;;;;;;19.50;7.45;;;;;;;17.91;57.34;101966.66;5074712;28;20110;-58
2022/06/17 06:24:00;;;;;;;27.45;7.05;;;;;;;17.93;57.15;101961.13;5075073;28;20040;-58
2022/06/17 06:26:30;;;;;;;24.50;7.27;;;;;;;17.86;57.66;101957.47;5075082;28;20140;-59
2022/06/17 06:29:09;;;;;;;18.35;6.70;;;;;;;17.82;57.65;101955.09;5081927;28;20331;-59
2022/06/17 06:31:39;;;;;;;22.88;6.93;;;;;;;17.87;57.52;101967.19;5094323;28;20051;-58
2022/06/17 06:34:17;;;;;;;14.68;6.45;;;;;;;17.85;57.47;101967.38;5094774;28;20036;-58
2022/06/17 06:36:44;;;;;;;16.48;6.35;;;;;;;17.76;57.39;101976.44;5093695;28;20390;-58
2022/06/17 06:39:12;;;;;;;16.15;5.78;;;;;;;17.93;58.05;101975.38;5094925;28;20062;-58
2022/06/17 06:41:40;;;;;;;14.88;5.93;;;;;;;17.79;57.18;101970.69;5094764;28;20048;-58
2022/06/17 06:44:07;;;;;;;13.68;6.13;;;;;;;17.79;57.67;101959.97;5094819;28;20048;-58
2022/06/17 06:46:54;;;;;;;16.08;6.70;;;;;;;17.97;57.11;101959.75;5094526;28;20040;-58
2022/06/17 06:49:35;;;;;;;11.50;5.90;;;;;;;18.07;57.28;101960.41;5093944;28;20482;-58
2022/06/17 06:52:02;;;;;;;15.38;6.45;;;;;;;18.05;57.83;101965.13;5094633;28;20055;-58
2022/06/17 06:54:30;;;;;;;15.30;6.25;;;;;;;18.19;58.64;101956.34;5093447;28;20064;-59
2022/06/17 06:56:59;;;;;;;14.80;6.38;;;;;;;18.25;57.75;101956.66;5076953;28;20048;-58
2022/06/17 06:59:41;;;;;;;13.38;5.93;;;;;;;18.29;57.41;101960.66;5094677;28;20059;-59
2022/06/17 07:02:09;;;;;;;17.55;6.30;;;;;;;18.44;58.39;101950.00;5094526;28;20508;-58
2022/06/17 07:04:37;;;;;;;15.10;5.90;;;;;;;18.51;57.14;101953.66;5093730;28;20166;-58
2022/06/17 07:07:05;;;;;;;13.57;5.75;;;;;;;18.64;57.72;101963.81;5094513;28;20492;-58
2022/06/17 07:09:32;;;;;;;23.40;6.22;;;;;;;18.72;55.49;101963.75;5094435;28;20054;-58
2022/06/17 07:11:59;;;;;;;18.23;6.30;;;;;;;18.84;55.62;101970.41;5092910;28;20036;-59
2022/06/17 07:14:26;;;;;;;16.30;5.70;;;;;;;19.02;56.05;101962.06;5093675;28;20044;-58
2022/06/17 07:16:52;;;;;;;12.90;5.60;;;;;;;19.20;53.52;101963.59;5093904;28;20101;-59
2022/06/17 07:19:20;;;;;;;12.73;5.30;;;;;;;19.47;52.46;101965.69;5093032;28;20048;-59
2022/06/17 07:21:48;;;;;;;15.00;5.40;;;;;;;19.54;52.31;101972.00;5094370;28;20184;-59
2022/06/17 07:24:15;;;;;;;12.18;5.32;;;;;;;19.61;52.66;101969.44;5094089;28;20525;-59
2022/06/17 07:26:42;;;;;;;15.65;5.55;;;;;;;19.70;52.58;101964.78;5094235;28;20105;-59
2022/06/17 07:29:09;;;;;;;10.98;4.95;;;;;;;19.86;51.75;101970.00;5093658;28;20518;-59
2022/06/17 07:31:35;;;;;;;13.82;5.25;;;;;;;19.98;52.08;101966.88;5093439;28;20043;-59
2022/06/17 07:34:02;;;;;;;13.25;5.03;;;;;;;19.97;50.97;101970.56;5093600;28;20040;-59
2022/06/17 07:42:05;;;;;;;13.50;5.20;;;;;;;20.07;51.23;101971.13;5111300;28;20089;-59
2022/06/17 07:44:32;;;;;;;11.88;5.47;;;;;;;20.14;50.67;101970.19;5113867;28;20050;-58
2022/06/17 07:46:59;;;;;;;20.80;7.00;;;;;;;20.17;51.78;101965.44;5113990;28;20105;-59
2022/06/17 07:49:26;;;;;;;19.20;5.82;;;;;;;20.11;53.66;101967.03;5105243;28;20056;-59
2022/06/17 07:51:52;;;;;;;11.88;5.30;;;;;;;20.08;52.41;101970.94;5093403;28;20139;-59
2022/06/17 07:54:19;;;;;;;15.20;5.32;;;;;;;20.09;52.89;101974.47;5093387;28;20101;-59
2022/06/17 07:56:48;;;;;;;11.07;5.00;;;;;;;20.20;52.61;101982.06;5093453;28;20443;-59
2022/06/17 07:59:14;;;;;;;10.65;4.78;;;;;;;20.24;54.40;101983.34;5093506;28;20048;-58
2022/06/17 08:01:41;;;;;;;17.80;5.45;;;;;;;20.40;51.13;101982.31;5093580;28;20056;-58
2022/06/17 08:04:08;;;;;;;15.77;4.88;;;;;;;20.48;51.17;101975.97;5092478;28;20044;-59
2022/06/17 08:06:35;;;;;;;11.70;4.80;;;;;;;20.59;51.92;101971.94;5091740;28;20401;-59
2022/06/17 08:09:03;;;;;;;12.90;5.40;;;;;;;20.66;53.58;101968.31;5087388;28;20439;-58
2022/06/17 08:11:30;;;;;;;14.43;4.82;;;;;;;20.75;55.00;101963.66;5088221;28;20042;-58
2022/06/17 08:13:56;;;;;;;18.20;5.97;;;;;;;20.82;51.42;101959.16;5079910;28;20064;-58
2022/06/17 08:16:23;;;;;;;13.85;7.30;;;;;;;20.95;50.32;101954.91;5091838;28;20039;-59
2022/06/17 08:18:50;;;;;;;11.88;4.75;;;;;;;21.04;49.05;101956.44;5092452;28;20052;-58
2022/06/17 08:21:17;;;;;;;14.20;5.85;;;;;;;21.00;52.43;101953.31;5092842;28;20497;-58
2022/06/17 08:23:51;;;;;;;15.13;6.00;;;;;;;21.06;49.77;101955.22;5081213;28;20041;-59
2022/06/17 08:26:18;;;;;;;26.48;10.68;;;;;;;21.20;50.28;101941.84;5080992;28;20044;-58
2022/06/17 08:28:45;;;;;;;18.95;7.38;;;;;;;21.24;49.83;101943.13;5082392;28;20079;-58
2022/06/17 08:31:12;;;;;;;19.40;6.47;;;;;;;21.32;50.49;101945.69;5073390;28;20098;-59
2022/06/17 08:33:39;;;;;;;13.45;5.15;;;;;;;21.43;49.63;101941.63;5070386;28;20051;-56
2022/06/17 08:36:13;;;;;;;21.45;6.38;;;;;;;21.64;49.39;101940.72;5074236;28;20066;-57
2022/06/17 08:38:45;;;;;;;28.90;9.30;;;;;;;21.81;48.91;101946.63;5077130;28;20168;-57
2022/06/17 08:41:31;;;;;;;29.88;14.32;;;;;;;22.10;47.70;101942.81;5092469;28;20055;-57
2022/06/17 08:44:28;;;;;;;35.72;14.00;;;;;;;22.23;46.72;101945.59;5082470;28;20553;-57
2022/06/17 08:47:29;;;;;;;17.83;7.20;;;;;;;22.29;46.63;101937.75;5089043;28;20048;-57
2022/06/17 08:50:25;;;;;;;16.97;5.73;;;;;;;22.29;46.14;101925.06;5087934;28;20082;-57
2022/06/17 08:53:04;;;;;;;10.30;4.20;;;;;;;22.37;45.74;101926.75;5090030;28;20052;-57
2022/06/17 08:55:42;;;;;;;13.35;4.22;;;;;;;22.50;44.80;101918.66;5084848;28;20112;-57
2022/06/17 08:58:29;;;;;;;11.98;4.47;;;;;;;22.55;44.43;101920.75;5076692;28;20044;-58
2022/06/17 09:01:30;;;;;;;12.23;4.93;;;;;;;22.41;44.63;101912.63;5059981;28;20515;-57
2022/06/17 09:04:10;;;;;;;15.52;3.88;;;;;;;22.66;42.44;101914.72;5093300;28;20044;-57
2022/06/17 09:07:16;;;;;;;11.90;4.10;;;;;;;22.75;43.64;101924.31;5095538;28;20048;-57
2022/06/17 09:12:56;;;;;;;15.50;4.13;;;;;;;23.14;41.65;101921.84;5110924;27;20853;-57
2022/06/17 09:15:45;;;;;;;12.52;3.97;;;;;;;23.35;40.95;101921.63;5108071;28;20117;-58
2022/06/17 09:18:32;;;;;;;8.73;3.53;;;;;;;23.55;40.65;101920.75;5109152;28;20114;-58
2022/06/17 09:21:23;;;;;;;11.88;3.42;;;;;;;23.82;40.95;101923.44;5107697;28;20040;-58
2022/06/17 09:23:53;;;;;;;11.65;4.65;;;;;;;23.91;40.38;101924.84;5089803;28;20047;-58
2022/06/17 09:26:25;;;;;;;81.53;44.80;;;;;;;23.92;40.20;101919.22;5100047;28;20056;-58
2022/06/17 09:28:57;;;;;;;38.25;21.52;;;;;;;23.98;40.96;101912.09;5090053;28;20047;-57
2022/06/17 09:31:32;;;;;;;19.83;8.50;;;;;;;24.03;41.17;101912.31;5090228;28;20038;-57
2022/06/17 09:34:06;;;;;;;15.98;5.93;;;;;;;24.09;40.13;101905.19;5095991;28;20052;-58
2022/06/17 09:36:41;;;;;;;15.90;5.82;;;;;;;24.12;39.65;101911.00;5104159;28;20050;-58
2022/06/17 09:39:16;;;;;;;12.45;5.35;;;;;;;24.11;39.33;101906.63;5107851;28;20044;-57
2022/06/17 09:41:50;;;;;;;14.32;5.65;;;;;;;24.33;39.30;101906.28;5107364;28;20028;-57
2022/06/17 09:44:22;;;;;;;26.65;12.55;;;;;;;24.46;38.99;101906.19;5110352;28;20044;-58
2022/06/17 09:47:14;;;;;;;15.00;6.38;;;;;;;24.65;38.58;101909.03;5109217;28;20097;-58
2022/06/17 09:50:04;;;;;;;12.05;3.85;;;;;;;24.75;36.94;101898.53;5103191;28;20073;-58
2022/06/17 09:52:38;;;;;;;13.95;3.70;;;;;;;24.88;37.15;101903.84;5106653;28;20065;-57
2022/06/17 09:57:58;;;;;;;11.48;4.75;;;;;;;25.02;37.98;101892.88;5110777;27;20376;-57
2022/06/17 10:00:32;;;;;;;18.02;6.25;;;;;;;25.14;36.76;101891.09;5072076;28;20123;-58
2022/06/17 10:03:18;;;;;;;15.32;3.95;;;;;;;25.19;34.83;101887.69;5109304;28;20126;-58
2022/06/17 10:06:25;;;;;;;10.77;3.90;;;;;;;25.48;35.49;101884.28;5095709;28;20040;-58
2022/06/17 10:09:20;;;;;;;9.90;4.00;;;;;;;25.48;35.00;101883.44;5093910;28;20044;-58
2022/06/17 10:11:56;;;;;;;9.60;3.83;;;;;;;25.43;34.27;101891.44;5108080;28;20044;-59
2022/06/17 10:15:01;;;;;;;11.55;3.70;;;;;;;25.73;36.06;101882.56;5105059;28;20051;-59
2022/06/17 10:20:41;;;;;;;12.18;3.50;;;;;;;25.99;35.18;101876.78;5092277;27;20404;-57
2022/06/17 10:26:31;;;;;;;10.90;3.58;;;;;;;25.99;34.79;101886.84;5111936;27;20128;-56
2022/06/17 10:29:39;;;;;;;11.98;3.45;;;;;;;26.07;35.14;101878.38;5078782;28;20121;-56
2022/06/17 10:32:06;;;;;;;12.57;4.32;;;;;;;26.10;34.98;101885.25;5094566;28;20150;-57
2022/06/17 10:34:43;;;;;;;8.65;3.38;;;;;;;26.02;35.33;101883.66;5117125;28;20036;-56
2022/06/17 10:37:11;;;;;;;9.40;3.60;;;;;;;26.10;34.64;101894.22;5113628;28;20508;-56
2022/06/17 10:39:39;;;;;;;13.75;3.85;;;;;;;26.09;35.57;101883.56;5082392;28;20057;-57
2022/06/17 10:42:09;;;;;;;77.60;6.18;;;;;;;26.18;32.60;101888.47;5097319;28;20047;-56
2022/06/17 10:44:37;;;;;;;14.43;3.70;;;;;;;26.33;34.10;101890.75;5116656;28;20089;-56
2022/06/17 10:50:09;;;;;;;10.02;3.42;;;;;;;26.87;32.16;101876.31;5108490;27;20918;-55
2022/06/17 10:52:43;;;;;;;11.15;3.42;;;;;;;27.02;32.03;101878.59;5091441;28;20039;-55
2022/06/17 10:55:23;;;;;;;11.20;4.18;;;;;;;27.26;28.85;101885.72;5080700;28;20041;-55
2022/06/17 10:58:13;;;;;;;14.23;4.10;;;;;;;27.26;29.03;101884.88;5077685;28;20044;-56
2022/06/17 11:00:45;;;;;;;13.55;5.75;;;;;;;27.11;30.26;101883.44;5083847;28;20071;-57
2022/06/17 11:03:20;;;;;;;16.42;4.88;;;;;;;27.06;29.36;101875.16;5096718;28;20048;-55
2022/06/17 11:05:55;;;;;;;13.23;6.40;;;;;;;27.07;31.41;101876.81;5090076;28;20095;-55
2022/06/17 11:08:25;;;;;;;18.75;8.27;;;;;;;27.18;32.72;101867.00;5075527;28;20048;-55
2022/06/17 11:10:57;;;;;;;10.00;3.60;;;;;;;27.07;29.16;101863.22;5068479;28;20137;-55
2022/06/17 11:13:24;;;;;;;;;;;;;;;26.93;29.54;101870.78;5080500;28;20073;-55
2022/06/17 11:15:56;;;;;;;10.10;4.78;;;;;;;27.03;30.83;101874.81;5084381;28;19920;-55
2022/06/17 11:18:30;;;;;;;8.35;3.42;;;;;;;27.10;30.61;101864.63;5070431;28;20043;-56
2022/06/17 11:21:04;;;;;;;13.18;3.80;;;;;;;26.98;30.26;101861.91;5076468;28;20040;-55
2022/06/17 11:23:38;;;;;;;8.05;3.00;;;;;;;26.95;29.83;101862.38;5074665;28;20065;-55
2022/06/17 11:26:15;;;;;;;13.82;3.70;;;;;;;27.25;30.58;101855.94;5089865;28;20048;-55
2022/06/17 11:28:53;;;;;;;10.05;4.00;;;;;;;27.39;30.27;101850.03;5080764;28;20041;-56
2022/06/17 11:34:11;;;;;;;10.38;3.63;;;;;;;27.93;29.11;101851.69;5121181;27;20418;-54
2022/06/17 11:36:57;;;;;;;12.95;3.20;;;;;;;27.94;29.29;101847.88;5108138;28;20489;-55
2022/06/17 11:39:31;;;;;;;9.88;2.75;;;;;;;28.11;29.83;101846.03;5110331;28;20052;-54
2022/06/17 11:42:01;;;;;;;14.23;3.75;;;;;;;28.14;28.41;101839.25;5107010;28;20552;-55
2022/06/17 11:44:28;;;;;;;10.85;3.20;;;;;;;27.94;27.93;101831.50;5109979;28;20135;-55
2022/06/17 11:46:59;;;;;;;17.80;3.00;;;;;;;27.71;28.64;101830.53;5108877;28;20042;-56
2022/06/17 11:49:26;;;;;;;9.82;3.10;;;;;;;27.68;29.53;101830.19;5110933;28;20048;-55
2022/06/17 11:52:00;;;;;;;11.60;3.10;;;;;;;27.73;28.32;101822.94;5109153;28;20039;-55
2022/06/17 11:54:33;;;;;;;10.50;3.30;;;;;;;27.85;29.13;101812.00;5108104;28;20451;-56
2022/06/17 11:57:15;;;;;;;11.38;2.88;;;;;;;27.93;28.18;101817.06;5102796;28;20076;-56
2022/06/17 11:59:45;;;;;;;8.73;3.13;;;;;;;28.14;29.61;101812.81;5090129;28;20040;-56
2022/06/17 12:02:14;;;;;;;7.63;2.50;;;;;;;28.22;29.85;101806.13;5090158;28;20032;-56
2022/06/17 12:04:49;;;;;;;10.93;2.90;;;;;;;28.19;27.81;101803.88;5108467;28;20151;-59
2022/06/17 12:10:35;;;;;;;9.45;2.83;;;;;;;28.50;29.10;101793.47;5113588;27;20386;-56
2022/06/17 12:13:11;;;;;;;9.10;2.75;;;;;;;28.68;26.74;101781.50;5105322;27;20043;-47
2022/06/17 12:15:44;;;;;;;15.18;3.03;;;;;;;28.79;26.67;101785.19;5107835;28;20063;-48
2022/06/17 12:18:35;;;;;;;9.13;3.10;;;;;;;28.76;27.42;101785.69;5101008;28;20044;-57
2022/06/17 12:24:39;;;;;;;11.43;3.05;;;;;;;29.07;25.95;101784.19;5110450;27;20400;-56
2022/06/17 12:27:24;;;;;;;12.18;2.72;;;;;;;29.14;27.23;101784.88;5110368;28;20082;-56
2022/06/17 12:30:10;;;;;;;10.25;2.90;;;;;;;29.10;26.69;101781.78;5110746;28;20044;-56